createdAt,value
2017-09-27T00:00:01.676Z,85.24
2017-09-27T00:02:29.066Z,85.83
2017-09-27T00:04:56.482Z,85.48
2017-09-27T00:07:23.874Z,85.46
2017-09-27T00:09:51.279Z,86.16
2017-09-27T00:12:18.679Z,86.36
2017-09-27T00:14:46.074Z,87.13
2017-09-27T00:17:13.482Z,87.64
2017-09-27T00:19:40.878Z,87.27
2017-09-27T00:22:08.277Z,86.72
2017-09-27T00:24:35.676Z,87.23
2017-09-27T00:27:03.083Z,87.40
2017-09-27T00:29:30.479Z,87.29
2017-09-27T00:31:57.887Z,86.77
2017-09-27T00:34:25.278Z,87.54
2017-09-27T00:36:52.684Z,87.61
2017-09-27T00:39:20.074Z,87.92
2017-09-27T00:41:47.467Z,87.14
2017-09-27T00:44:14.871Z,87.36
2017-09-27T00:46:42.278Z,87.89
2017-09-27T00:49:09.690Z,88.25
2017-09-27T00:51:37.086Z,87.59
2017-09-27T00:54:04.486Z,88.12
2017-09-27T00:56:31.886Z,88.83
2017-09-27T00:58:59.282Z,88.84
2017-09-27T01:01:26.687Z,88.91
2017-09-27T01:03:54.083Z,88.93
2017-09-27T01:06:21.499Z,88.89
2017-09-27T01:08:48.894Z,88.66
2017-09-27T01:11:16.291Z,88.57
2017-09-27T01:13:43.695Z,88.30
2017-09-27T01:16:11.098Z,88.14
2017-09-27T01:18:38.509Z,87.97
2017-09-27T01:21:05.906Z,88.25
2017-09-27T01:23:33.310Z,88.31
2017-09-27T01:26:00.700Z,88.41
2017-09-27T01:28:28.114Z,88.61
2017-09-27T01:30:55.508Z,88.73
2017-09-27T01:33:22.898Z,88.61
2017-09-27T01:35:50.299Z,88.10
2017-09-27T01:38:17.694Z,87.63
2017-09-27T01:40:45.098Z,87.47
2017-09-27T01:43:12.497Z,87.40
2017-09-27T01:45:39.910Z,87.18
2017-09-27T01:48:07.307Z,87.14
2017-09-27T01:50:34.702Z,87.40
2017-09-27T01:53:02.111Z,87.77
2017-09-27T01:55:29.506Z,88.04
2017-09-27T01:57:56.907Z,87.90
2017-09-27T02:00:24.310Z,87.82
2017-09-27T02:02:53.514Z,87.80
2017-09-27T02:05:20.918Z,87.82
2017-09-27T02:07:48.314Z,87.94
2017-09-27T02:10:15.720Z,88.06
2017-09-27T02:12:43.118Z,88.21
2017-09-27T02:15:10.524Z,88.32
2017-09-27T02:17:37.931Z,88.44
2017-09-27T02:20:05.331Z,89.03
2017-09-27T02:22:32.737Z,89.75
2017-09-27T02:25:00.126Z,90.00
2017-09-27T02:27:27.537Z,89.54
2017-09-27T02:29:54.931Z,89.33
2017-09-27T02:32:22.330Z,89.49
2017-09-27T02:34:49.729Z,89.41
2017-09-27T02:37:17.139Z,89.75
2017-09-27T02:39:44.534Z,90.31
2017-09-27T02:42:11.931Z,91.01
2017-09-27T02:44:39.347Z,91.48
2017-09-27T02:47:06.739Z,91.49
2017-09-27T02:49:34.143Z,91.30
2017-09-27T02:52:01.544Z,90.86
2017-09-27T02:54:28.959Z,90.69
2017-09-27T02:56:56.354Z,91.10
2017-09-27T02:59:23.753Z,91.23
2017-09-27T03:01:51.157Z,90.87
2017-09-27T03:04:18.554Z,90.65
2017-09-27T03:06:45.954Z,91.30
2017-09-27T03:09:13.356Z,91.45
2017-09-27T03:11:40.782Z,91.64
2017-09-27T03:14:08.179Z,91.21
2017-09-27T03:16:35.574Z,90.89
2017-09-27T03:19:02.983Z,90.59
2017-09-27T03:21:30.379Z,90.34
2017-09-27T03:23:57.783Z,90.23
2017-09-27T03:26:25.179Z,90.41
2017-09-27T03:28:52.583Z,90.38
2017-09-27T03:31:19.988Z,90.70
2017-09-27T03:33:47.371Z,90.47
2017-09-27T03:36:14.782Z,90.41
2017-09-27T03:38:42.174Z,90.73
2017-09-27T03:41:09.594Z,91.15
2017-09-27T03:43:36.986Z,90.73
2017-09-27T03:46:04.386Z,90.36
2017-09-27T03:48:31.790Z,90.86
2017-09-27T03:50:59.192Z,91.28
2017-09-27T03:53:26.595Z,90.67
2017-09-27T03:55:53.991Z,90.38
2017-09-27T03:58:21.413Z,90.29
2017-09-27T04:00:48.797Z,90.24
2017-09-27T04:03:16.190Z,89.87
2017-09-27T04:05:43.607Z,89.59
2017-09-27T04:08:11.003Z,89.44
2017-09-27T04:10:38.740Z,89.74
2017-09-27T04:13:06.131Z,89.84
2017-09-27T04:15:33.543Z,90.23
2017-09-27T04:18:00.938Z,90.51
2017-09-27T04:20:28.330Z,90.70
2017-09-27T04:22:55.735Z,90.42
2017-09-27T04:25:23.136Z,90.21
2017-09-27T04:27:50.543Z,90.23
2017-09-27T04:30:17.942Z,90.28
2017-09-27T04:32:45.355Z,90.21
2017-09-27T04:35:12.750Z,90.29
2017-09-27T04:37:40.151Z,90.33
2017-09-27T04:40:07.553Z,90.52
2017-09-27T04:42:34.944Z,90.60
2017-09-27T04:45:02.351Z,90.60
2017-09-27T04:47:29.743Z,90.54
2017-09-27T04:49:57.155Z,90.95
2017-09-27T04:52:24.551Z,91.53
2017-09-27T04:54:51.956Z,91.02
2017-09-27T04:57:19.354Z,90.68
2017-09-27T04:59:46.751Z,90.54
2017-09-27T05:02:14.159Z,90.33
2017-09-27T05:04:41.554Z,90.05
2017-09-27T05:07:08.967Z,90.11
2017-09-27T05:09:36.361Z,90.14
2017-09-27T05:12:03.760Z,90.53
2017-09-27T05:14:31.163Z,90.61
2017-09-27T05:16:58.563Z,90.55
2017-09-27T05:19:25.963Z,90.12
2017-09-27T05:21:53.363Z,89.81
2017-09-27T05:24:20.782Z,89.90
2017-09-27T05:26:48.179Z,89.71
2017-09-27T05:29:15.582Z,89.42
2017-09-27T05:31:42.979Z,89.23
2017-09-27T05:34:10.375Z,89.14
2017-09-27T05:36:37.782Z,89.13
2017-09-27T05:39:05.178Z,89.20
2017-09-27T05:41:32.590Z,89.22
2017-09-27T05:43:59.986Z,89.31
2017-09-27T05:46:27.383Z,89.39
2017-09-27T05:48:54.788Z,89.51
2017-09-27T05:51:22.179Z,89.58
2017-09-27T05:53:49.574Z,89.51
2017-09-27T05:56:16.971Z,89.40
2017-09-27T05:58:44.380Z,89.17
2017-09-27T06:01:11.774Z,88.88
2017-09-27T06:03:39.174Z,88.82
2017-09-27T06:06:06.575Z,88.68
2017-09-27T06:08:34.004Z,88.56
2017-09-27T06:11:01.398Z,88.58
2017-09-27T06:13:28.791Z,88.55
2017-09-27T06:15:56.190Z,88.58
2017-09-27T06:18:23.587Z,88.65
2017-09-27T06:20:50.987Z,88.66
2017-09-27T06:23:18.383Z,88.70
2017-09-27T06:25:45.774Z,88.76
2017-09-27T06:28:13.174Z,88.81
2017-09-27T06:30:40.570Z,88.75
2017-09-27T06:33:07.984Z,88.75
2017-09-27T06:35:35.383Z,88.73
2017-09-27T06:38:02.775Z,88.73
2017-09-27T06:40:30.178Z,88.73
2017-09-27T06:42:57.579Z,88.77
2017-09-27T06:45:24.997Z,88.79
2017-09-27T06:47:52.377Z,88.74
2017-09-27T06:50:19.790Z,88.81
2017-09-27T06:52:47.190Z,88.84
2017-09-27T06:55:14.622Z,89.00
2017-09-27T06:57:42.043Z,89.01
2017-09-27T07:00:09.431Z,89.08
2017-09-27T07:02:36.830Z,89.00
2017-09-27T07:05:04.230Z,89.10
2017-09-27T07:07:31.652Z,89.25
2017-09-27T07:09:59.043Z,89.26
2017-09-27T07:12:26.434Z,89.25
2017-09-27T07:14:53.839Z,89.19
2017-09-27T07:17:21.230Z,89.14
2017-09-27T07:19:48.634Z,89.14
2017-09-27T07:22:16.030Z,89.12
2017-09-27T07:24:43.451Z,89.00
2017-09-27T07:27:10.843Z,88.91
2017-09-27T07:29:38.244Z,88.63
2017-09-27T07:32:05.646Z,88.71
2017-09-27T07:34:33.043Z,88.52
2017-09-27T07:37:00.450Z,88.14
2017-09-27T07:39:27.846Z,87.93
2017-09-27T07:41:55.269Z,88.21
2017-09-27T07:44:22.663Z,88.18
2017-09-27T07:46:50.058Z,88.03
2017-09-27T07:49:17.458Z,88.11
2017-09-27T07:51:44.858Z,87.69
2017-09-27T07:54:12.262Z,87.01
2017-09-27T07:56:39.662Z,86.90
2017-09-27T07:59:07.070Z,86.77
2017-09-27T08:01:34.467Z,86.86
2017-09-27T08:04:01.870Z,86.66
2017-09-27T08:06:29.272Z,85.90
2017-09-27T08:08:56.666Z,85.76
2017-09-27T08:11:24.067Z,85.03
2017-09-27T08:13:51.458Z,84.97
2017-09-27T08:16:18.858Z,85.42
2017-09-27T08:18:46.255Z,84.01
2017-09-27T08:21:13.659Z,83.90
2017-09-27T08:23:41.062Z,83.62
2017-09-27T08:26:08.463Z,83.01
2017-09-27T08:28:35.858Z,83.45
2017-09-27T08:31:03.264Z,83.24
2017-09-27T08:33:30.659Z,82.21
2017-09-27T08:35:58.056Z,82.61
2017-09-27T08:38:25.462Z,82.12
2017-09-27T08:40:52.859Z,81.99
2017-09-27T08:43:20.262Z,78.41
2017-09-27T08:45:47.659Z,78.12
2017-09-27T08:48:15.075Z,79.62
2017-09-27T08:50:42.470Z,75.29
2017-09-27T08:53:09.866Z,75.54
2017-09-27T08:55:37.269Z,75.63
2017-09-27T08:58:04.666Z,75.09
2017-09-27T09:00:32.067Z,73.66
2017-09-27T09:02:59.463Z,74.49
2017-09-27T09:05:26.867Z,73.60
2017-09-27T09:07:54.262Z,72.26
2017-09-27T09:10:21.666Z,72.25
2017-09-27T09:12:49.063Z,71.67
2017-09-27T09:15:16.455Z,69.46
2017-09-27T09:17:43.878Z,70.22
2017-09-27T09:20:11.271Z,67.51
2017-09-27T09:22:38.670Z,68.89
2017-09-27T09:25:06.136Z,65.85
2017-09-27T09:27:33.530Z,68.18
2017-09-27T09:30:00.926Z,66.03
2017-09-27T09:32:28.329Z,66.28
2017-09-27T09:34:55.726Z,62.39
2017-09-27T09:37:23.118Z,62.58
2017-09-27T09:39:50.526Z,61.50
2017-09-27T09:42:17.926Z,59.02
2017-09-27T09:44:45.329Z,60.18
2017-09-27T09:47:12.722Z,56.65
2017-09-27T09:49:40.131Z,58.79
2017-09-27T09:52:07.530Z,57.30
2017-09-27T09:54:34.943Z,56.01
2017-09-27T09:57:02.335Z,55.62
2017-09-27T09:59:29.739Z,55.53
2017-09-27T10:01:57.140Z,52.42
2017-09-27T10:04:24.547Z,57.43
2017-09-27T10:06:51.957Z,55.25
2017-09-27T10:09:19.350Z,57.34
2017-09-27T10:11:46.771Z,53.70
2017-09-27T10:14:14.164Z,55.55
2017-09-27T10:16:41.575Z,52.77
2017-09-27T10:19:09.000Z,52.77
2017-09-27T10:21:36.393Z,52.99
2017-09-27T10:24:03.800Z,53.02
2017-09-27T10:26:31.198Z,51.06
2017-09-27T10:28:58.599Z,50.03
2017-09-27T10:31:25.992Z,49.17
2017-09-27T10:33:53.398Z,50.01
2017-09-27T10:36:20.794Z,50.43
2017-09-27T10:38:48.195Z,48.64
2017-09-27T10:41:15.597Z,50.19
2017-09-27T10:43:42.995Z,49.63
2017-09-27T10:46:10.394Z,49.92
2017-09-27T10:48:37.799Z,48.26
2017-09-27T10:51:05.199Z,48.44
2017-09-27T10:53:32.596Z,50.02
2017-09-27T10:56:00.014Z,46.76
2017-09-27T10:58:27.414Z,46.30
2017-09-27T11:00:54.813Z,47.77
2017-09-27T11:03:22.226Z,46.69
2017-09-27T11:05:49.628Z,49.26
2017-09-27T11:08:17.023Z,46.19
2017-09-27T11:10:44.423Z,50.63
2017-09-27T11:13:11.823Z,43.81
2017-09-27T11:15:39.215Z,48.28
2017-09-27T11:18:06.619Z,47.26
2017-09-27T11:20:34.029Z,47.04
2017-09-27T11:23:01.430Z,48.08
2017-09-27T11:25:28.834Z,47.17
2017-09-27T11:27:56.224Z,45.73
2017-09-27T11:30:23.637Z,46.23
2017-09-27T11:32:51.025Z,44.87
2017-09-27T11:35:18.427Z,46.83
2017-09-27T11:37:45.827Z,44.24
2017-09-27T11:40:13.224Z,46.84
2017-09-27T11:42:40.624Z,45.32
2017-09-27T11:45:08.019Z,46.87
2017-09-27T11:47:35.418Z,44.13
2017-09-27T11:50:02.816Z,46.82
2017-09-27T11:52:30.235Z,46.71
2017-09-27T11:54:57.630Z,46.24
2017-09-27T11:57:25.027Z,44.42
2017-09-27T11:59:52.434Z,46.62
2017-09-27T12:02:19.831Z,44.59
2017-09-27T12:04:47.232Z,44.02
2017-09-27T12:07:14.627Z,46.71
2017-09-27T12:09:42.031Z,44.68
2017-09-27T12:12:09.438Z,44.41
2017-09-27T12:14:36.859Z,43.01
2017-09-27T12:17:04.258Z,45.25
2017-09-27T12:19:31.651Z,44.26
2017-09-27T12:21:59.057Z,40.57
2017-09-27T12:24:26.439Z,44.25
2017-09-27T12:26:53.849Z,42.87
2017-09-27T12:29:21.245Z,42.50
2017-09-27T12:31:48.646Z,43.76
2017-09-27T12:34:16.058Z,43.45
2017-09-27T12:36:43.451Z,45.53
2017-09-27T12:39:10.842Z,41.98
2017-09-27T12:41:38.234Z,45.23
2017-09-27T12:44:05.638Z,43.96
2017-09-27T12:46:33.034Z,42.13
2017-09-27T12:49:00.443Z,44.04
2017-09-27T12:51:27.836Z,46.13
2017-09-27T12:53:55.239Z,46.07
2017-09-27T12:56:22.634Z,46.31
2017-09-27T12:58:50.047Z,46.82
2017-09-27T13:01:17.467Z,45.91
2017-09-27T13:03:44.863Z,44.74
2017-09-27T13:06:12.267Z,44.32
2017-09-27T13:08:39.682Z,45.01
2017-09-27T13:11:07.078Z,45.45
2017-09-27T13:13:34.476Z,44.48
2017-09-27T13:16:01.883Z,48.79
2017-09-27T13:18:29.289Z,47.29
2017-09-27T13:20:56.698Z,44.16
2017-09-27T13:23:24.098Z,45.87
2017-09-27T13:25:51.491Z,48.26
2017-09-27T13:28:18.891Z,46.57
2017-09-27T13:30:46.284Z,46.70
2017-09-27T13:33:13.731Z,47.57
2017-09-27T13:35:41.134Z,47.38
2017-09-27T13:38:08.554Z,45.19
2017-09-27T13:40:35.950Z,47.38
2017-09-27T13:43:03.348Z,46.01
2017-09-27T13:45:30.742Z,48.19
2017-09-27T13:47:58.139Z,48.40
2017-09-27T13:50:25.543Z,47.68
2017-09-27T13:52:52.938Z,49.75
2017-09-27T13:55:20.347Z,48.44
2017-09-27T13:57:47.746Z,46.10
2017-09-27T14:00:15.146Z,47.48
2017-09-27T14:02:42.545Z,46.64
2017-09-27T14:05:09.939Z,47.42
2017-09-27T14:07:37.338Z,47.68
2017-09-27T14:10:04.736Z,49.48
2017-09-27T14:12:32.139Z,50.33
2017-09-27T14:14:59.531Z,53.15
2017-09-27T14:17:26.926Z,47.20
2017-09-27T14:19:54.327Z,49.08
2017-09-27T14:22:21.731Z,47.99
2017-09-27T14:24:49.134Z,50.17
2017-09-27T14:27:16.536Z,49.48
2017-09-27T14:29:43.946Z,49.41
2017-09-27T14:32:11.342Z,48.79
2017-09-27T14:34:38.739Z,48.78
2017-09-27T14:37:06.147Z,50.92
2017-09-27T14:39:33.610Z,48.76
2017-09-27T14:42:01.033Z,50.06
2017-09-27T14:44:28.424Z,49.92
2017-09-27T14:46:55.830Z,50.26
2017-09-27T14:49:23.218Z,48.18
2017-09-27T14:51:50.618Z,47.50
2017-09-27T14:54:18.019Z,47.90
2017-09-27T14:56:45.422Z,48.03
2017-09-27T14:59:12.822Z,48.01
2017-09-27T15:01:40.223Z,51.18
2017-09-27T15:04:07.631Z,51.12
2017-09-27T15:06:35.031Z,50.35
2017-09-27T15:09:02.498Z,51.07
2017-09-27T15:11:29.895Z,51.46
2017-09-27T15:13:57.287Z,51.48
2017-09-27T15:16:24.690Z,52.44
2017-09-27T15:18:52.083Z,49.46
2017-09-27T15:21:19.478Z,48.72
2017-09-27T15:23:46.878Z,51.34
2017-09-27T15:26:14.274Z,50.57
2017-09-27T15:28:41.675Z,51.22
2017-09-27T15:31:09.072Z,51.25
2017-09-27T15:33:36.474Z,52.25
2017-09-27T15:36:04.583Z,53.52
2017-09-27T15:38:31.988Z,52.27
2017-09-27T15:40:59.403Z,53.54
2017-09-27T15:43:26.800Z,52.75
2017-09-27T15:45:54.195Z,55.31
2017-09-27T15:48:21.603Z,51.98
2017-09-27T15:50:49.012Z,51.80
2017-09-27T15:53:16.411Z,53.54
2017-09-27T15:55:43.810Z,55.55
2017-09-27T15:58:11.202Z,56.31
2017-09-27T16:00:38.606Z,55.42
2017-09-27T16:03:06.006Z,56.14
2017-09-27T16:05:33.413Z,56.56
2017-09-27T16:08:00.820Z,56.69
2017-09-27T16:10:28.206Z,55.92
2017-09-27T16:12:55.607Z,55.26
2017-09-27T16:15:23.002Z,58.19
2017-09-27T16:17:50.487Z,60.23
2017-09-27T16:20:17.918Z,59.88
2017-09-27T16:22:45.313Z,59.68
2017-09-27T16:25:12.710Z,60.19
2017-09-27T16:27:40.110Z,60.88
2017-09-27T16:30:07.533Z,60.25
2017-09-27T16:32:34.926Z,61.63
2017-09-27T16:35:02.352Z,62.45
2017-09-27T16:37:29.757Z,62.16
2017-09-27T16:39:57.151Z,62.61
2017-09-27T16:42:24.546Z,63.01
2017-09-27T16:44:51.947Z,62.55
2017-09-27T16:47:19.346Z,63.23
2017-09-27T16:49:46.762Z,63.84
2017-09-27T16:52:14.174Z,64.62
2017-09-27T16:54:41.580Z,65.39
2017-09-27T16:57:08.987Z,66.05
2017-09-27T16:59:36.375Z,66.46
2017-09-27T17:02:05.742Z,66.72
2017-09-27T17:04:33.143Z,67.06
2017-09-27T17:07:00.580Z,67.47
2017-09-27T17:09:27.983Z,67.88
2017-09-27T17:11:55.375Z,68.27
2017-09-27T17:14:22.818Z,68.53
2017-09-27T17:16:50.210Z,68.64
2017-09-27T17:19:17.606Z,69.02
2017-09-27T17:21:45.010Z,69.13
2017-09-27T17:24:12.422Z,69.30
2017-09-27T17:26:39.815Z,69.54
2017-09-27T17:29:07.219Z,69.84
2017-09-27T17:31:34.616Z,69.66
2017-09-27T17:34:02.015Z,69.83
2017-09-27T17:36:29.596Z,69.97
2017-09-27T17:38:56.993Z,70.01
2017-09-27T17:41:24.386Z,70.33
2017-09-27T17:43:51.779Z,70.81
2017-09-27T17:46:19.182Z,71.02
2017-09-27T17:48:46.583Z,70.43
2017-09-27T17:51:13.978Z,70.57
2017-09-27T17:53:41.442Z,70.53
2017-09-27T17:56:08.847Z,71.24
2017-09-27T17:58:36.263Z,71.70
2017-09-27T18:01:03.684Z,71.59
2017-09-27T18:03:31.146Z,72.20
2017-09-27T18:06:03.898Z,71.97
2017-09-27T18:08:36.942Z,72.12
2017-09-27T18:14:20.766Z,72.78
2017-09-27T18:16:53.859Z,72.95
2017-09-27T18:19:21.283Z,73.14
2017-09-27T18:21:48.674Z,73.04
2017-09-27T18:24:16.148Z,73.34
2017-09-27T18:26:43.556Z,73.36
2017-09-27T18:29:11.055Z,73.53
2017-09-27T18:31:38.469Z,73.56
2017-09-27T18:34:05.881Z,73.99
2017-09-27T18:36:33.291Z,74.46
2017-09-27T18:39:00.700Z,74.66
2017-09-27T18:41:28.098Z,74.98
2017-09-27T18:43:55.614Z,75.08
2017-09-27T18:46:23.041Z,75.34
2017-09-27T18:48:50.431Z,75.32
2017-09-27T18:51:17.862Z,75.49
2017-09-27T18:53:45.246Z,75.69
2017-09-27T18:56:12.664Z,75.66
2017-09-27T18:58:40.069Z,75.86
2017-09-27T19:01:07.462Z,76.11
2017-09-27T19:03:34.858Z,76.40
2017-09-27T19:06:02.259Z,75.84
2017-09-27T19:08:29.670Z,75.93
2017-09-27T19:10:57.070Z,76.23
2017-09-27T19:13:24.463Z,76.23
2017-09-27T19:15:51.862Z,76.32
2017-09-27T19:18:19.266Z,76.51
2017-09-27T19:20:52.663Z,76.54
2017-09-27T19:23:20.058Z,76.48
2017-09-27T19:25:47.463Z,76.30
2017-09-27T19:28:14.864Z,76.70
2017-09-27T19:30:42.274Z,76.62
2017-09-27T19:33:09.667Z,77.03
2017-09-27T19:35:37.063Z,76.98
2017-09-27T19:38:04.466Z,77.24
2017-09-27T19:40:31.864Z,76.91
2017-09-27T19:42:59.270Z,76.96
2017-09-27T19:45:26.666Z,77.09
2017-09-27T19:47:54.078Z,77.42
2017-09-27T19:50:21.480Z,77.40
2017-09-27T19:52:48.879Z,77.76
2017-09-27T19:55:16.283Z,77.78
2017-09-27T19:57:43.679Z,77.62
2017-09-27T20:00:11.093Z,77.74
2017-09-27T20:02:38.480Z,78.19
2017-09-27T20:05:05.891Z,78.16
2017-09-27T20:07:33.294Z,78.36
2017-09-27T20:10:00.682Z,78.65
2017-09-27T20:12:28.083Z,78.72
2017-09-27T20:14:55.487Z,79.11
2017-09-27T20:17:22.890Z,78.99
2017-09-27T20:19:50.281Z,79.10
2017-09-27T20:22:17.690Z,79.19
2017-09-27T20:24:45.086Z,79.22
2017-09-27T20:27:12.482Z,79.28
2017-09-27T20:29:39.895Z,79.02
2017-09-27T20:32:07.291Z,79.24
2017-09-27T20:34:34.698Z,79.35
2017-09-27T20:37:02.091Z,79.54
2017-09-27T20:39:29.502Z,79.46
2017-09-27T20:41:56.903Z,79.79
2017-09-27T20:44:24.304Z,80.41
2017-09-27T20:46:51.711Z,80.49
2017-09-27T20:49:19.118Z,80.23
2017-09-27T20:51:46.518Z,80.27
2017-09-27T20:54:13.914Z,79.99
2017-09-27T20:56:41.323Z,80.11
2017-09-27T20:59:08.726Z,80.23
2017-09-27T21:01:36.127Z,79.91
2017-09-27T21:04:03.523Z,79.81
2017-09-27T21:06:30.930Z,79.87
2017-09-27T21:08:58.336Z,79.91
2017-09-27T21:11:25.723Z,79.84
2017-09-27T21:13:53.143Z,79.62
2017-09-27T21:16:20.543Z,79.56
2017-09-27T21:18:47.935Z,79.56
2017-09-27T21:21:15.338Z,79.37
2017-09-27T21:23:42.740Z,79.12
2017-09-27T21:26:10.147Z,79.24
2017-09-27T21:28:37.546Z,79.24
2017-09-27T21:31:04.957Z,79.70
2017-09-27T21:33:32.362Z,79.77
2017-09-27T21:35:59.762Z,79.75
2017-09-27T21:38:27.175Z,79.72
2017-09-27T21:40:54.570Z,79.50
2017-09-27T21:43:21.970Z,79.52
2017-09-27T21:45:49.368Z,79.56
2017-09-27T21:48:16.781Z,79.60
2017-09-27T21:50:44.174Z,79.64
2017-09-27T21:53:11.574Z,79.88
2017-09-27T21:55:38.979Z,79.48
2017-09-27T21:58:06.374Z,79.41
2017-09-27T22:00:33.783Z,79.42
2017-09-27T22:03:01.187Z,79.64
2017-09-27T22:05:28.595Z,79.78
2017-09-27T22:07:55.989Z,79.66
2017-09-27T22:10:23.383Z,79.46
2017-09-27T22:12:50.796Z,79.26
2017-09-27T22:15:18.191Z,79.29
2017-09-27T22:17:45.591Z,79.32
2017-09-27T22:20:12.983Z,79.18
2017-09-27T22:22:40.398Z,79.15
2017-09-27T22:25:07.790Z,79.15
2017-09-27T22:27:35.186Z,78.93
2017-09-27T22:30:02.586Z,79.05
2017-09-27T22:32:29.987Z,79.06
2017-09-27T22:34:57.383Z,78.96
2017-09-27T22:37:24.775Z,79.16
2017-09-27T22:39:52.182Z,79.29
2017-09-27T22:42:19.579Z,79.41
2017-09-27T22:44:46.975Z,79.40
2017-09-27T22:47:14.375Z,79.34
2017-09-27T22:49:41.765Z,79.26
2017-09-27T22:52:09.178Z,79.23
2017-09-27T22:54:36.582Z,79.27
2017-09-27T22:57:03.978Z,79.20
2017-09-27T22:59:31.375Z,79.22
2017-09-27T23:01:58.771Z,79.13
2017-09-27T23:04:26.182Z,79.41
2017-09-27T23:06:53.578Z,79.23
2017-09-27T23:09:20.975Z,79.25
2017-09-27T23:11:48.378Z,79.39
2017-09-27T23:14:15.778Z,79.25
2017-09-27T23:16:43.178Z,79.61
2017-09-27T23:19:10.586Z,80.00
2017-09-27T23:21:38.278Z,80.21
2017-09-27T23:24:05.673Z,80.36
2017-09-27T23:26:33.077Z,80.25
2017-09-27T23:29:00.474Z,80.24
2017-09-27T23:31:27.870Z,80.10
2017-09-27T23:33:55.278Z,79.87
2017-09-27T23:36:22.673Z,79.52
2017-09-27T23:38:50.079Z,79.55
2017-09-27T23:41:17.478Z,79.42
2017-09-27T23:43:44.907Z,79.34
2017-09-27T23:46:12.312Z,79.38
2017-09-27T23:48:39.711Z,79.31
2017-09-27T23:51:07.113Z,79.48
2017-09-27T23:53:34.506Z,79.60
2017-09-27T23:56:01.914Z,79.76
2017-09-27T23:58:29.311Z,79.89
